sensor_id;sensor_type;location;lat;lon;timestamp;temperature;humidity
18207;DHT22;9229;52.354;20.886;2023-02-28T00:03:01;-2.70;99.90
18207;DHT22;9229;52.354;20.886;2023-02-28T00:08:03;-2.80;99.90
18207;DHT22;9229;52.354;20.886;2023-02-28T00:13:07;-2.90;99.90
18207;DHT22;9229;52.354;20.886;2023-02-28T00:18:09;-3.00;99.90
18207;DHT22;9229;52.354;20.886;2023-02-28T00:23:13;-3.10;99.90
18207;DHT22;9229;52.354;20.886;2023-02-28T00:28:18;-3.20;99.90
18207;DHT22;9229;52.354;20.886;2023-02-28T00:33:21;-3.30;99.90
18207;DHT22;9229;52.354;20.886;2023-02-28T00:38:23;-3.30;99.90
18207;DHT22;9229;52.354;20.886;2023-02-28T00:43:33;-3.40;99.90
18207;DHT22;9229;52.354;20.886;2023-02-28T00:48:36;-3.40;99.90
18207;DHT22;9229;52.354;20.886;2023-02-28T00:53:37;-3.50;99.90
18207;DHT22;9229;52.354;20.886;2023-02-28T00:58:41;-3.60;99.90
18207;DHT22;9229;52.354;20.886;2023-02-28T01:03:43;-3.70;99.90
18207;DHT22;9229;52.354;20.886;2023-02-28T01:08:45;-3.70;99.90
18207;DHT22;9229;52.354;20.886;2023-02-28T01:13:49;-3.80;99.90
18207;DHT22;9229;52.354;20.886;2023-02-28T01:18:51;-3.90;99.90
18207;DHT22;9229;52.354;20.886;2023-02-28T01:23:56;-4.00;99.90
18207;DHT22;9229;52.354;20.886;2023-02-28T01:28:59;-4.00;99.90
18207;DHT22;9229;52.354;20.886;2023-02-28T01:34:02;-4.10;99.90
18207;DHT22;9229;52.354;20.886;2023-02-28T01:39:04;-4.10;99.90
18207;DHT22;9229;52.354;20.886;2023-02-28T01:49:44;-4.20;99.90
18207;DHT22;9229;52.354;20.886;2023-02-28T01:54:51;-4.30;99.90
18207;DHT22;9229;52.354;20.886;2023-02-28T01:59:57;-4.30;99.90
18207;DHT22;9229;52.354;20.886;2023-02-28T02:05:06;-4.40;99.90
18207;DHT22;9229;52.354;20.886;2023-02-28T02:10:12;-4.40;99.90
18207;DHT22;9229;52.354;20.886;2023-02-28T02:15:23;-4.50;99.90
18207;DHT22;9229;52.354;20.886;2023-02-28T02:37:33;-4.80;99.90
18207;DHT22;9229;52.354;20.886;2023-02-28T02:42:41;-4.80;99.90
18207;DHT22;9229;52.354;20.886;2023-02-28T02:47:47;-4.80;99.90
18207;DHT22;9229;52.354;20.886;2023-02-28T02:52:55;-4.70;99.90
18207;DHT22;9229;52.354;20.886;2023-02-28T02:58:01;-4.70;99.90
18207;DHT22;9229;52.354;20.886;2023-02-28T03:03:05;-4.80;99.90
18207;DHT22;9229;52.354;20.886;2023-02-28T03:08:11;-4.80;99.90
18207;DHT22;9229;52.354;20.886;2023-02-28T03:13:28;-4.80;99.90
18207;DHT22;9229;52.354;20.886;2023-02-28T03:18:42;-5.00;99.90
18207;DHT22;9229;52.354;20.886;2023-02-28T03:23:53;-5.00;99.90
18207;DHT22;9229;52.354;20.886;2023-02-28T03:29:04;-5.00;99.90
18207;DHT22;9229;52.354;20.886;2023-02-28T03:34:10;-5.10;99.90
18207;DHT22;9229;52.354;20.886;2023-02-28T03:39:18;-5.20;99.90
18207;DHT22;9229;52.354;20.886;2023-02-28T03:44:25;-5.20;99.90
18207;DHT22;9229;52.354;20.886;2023-02-28T03:49:34;-5.30;99.90
18207;DHT22;9229;52.354;20.886;2023-02-28T03:54:44;-5.30;99.90
18207;DHT22;9229;52.354;20.886;2023-02-28T03:59:49;-5.30;99.90
18207;DHT22;9229;52.354;20.886;2023-02-28T04:04:52;-5.40;99.90
18207;DHT22;9229;52.354;20.886;2023-02-28T04:09:56;-5.40;99.90
18207;DHT22;9229;52.354;20.886;2023-02-28T04:14:59;-5.50;99.90
18207;DHT22;9229;52.354;20.886;2023-02-28T04:20:02;-5.50;99.90
18207;DHT22;9229;52.354;20.886;2023-02-28T04:25:11;-5.50;99.90
18207;DHT22;9229;52.354;20.886;2023-02-28T04:30:14;-5.50;99.90
18207;DHT22;9229;52.354;20.886;2023-02-28T04:35:18;-5.50;99.90
18207;DHT22;9229;52.354;20.886;2023-02-28T04:40:21;-5.50;99.90
18207;DHT22;9229;52.354;20.886;2023-02-28T04:45:23;-5.60;99.90
18207;DHT22;9229;52.354;20.886;2023-02-28T04:50:26;-5.70;99.90
18207;DHT22;9229;52.354;20.886;2023-02-28T04:55:29;-5.70;99.90
18207;DHT22;9229;52.354;20.886;2023-02-28T05:00:32;-5.70;99.90
18207;DHT22;9229;52.354;20.886;2023-02-28T05:05:35;-5.70;99.90
18207;DHT22;9229;52.354;20.886;2023-02-28T05:10:40;-5.80;99.90
18207;DHT22;9229;52.354;20.886;2023-02-28T05:15:42;-5.80;99.90
18207;DHT22;9229;52.354;20.886;2023-02-28T05:20:44;-5.80;99.90
18207;DHT22;9229;52.354;20.886;2023-02-28T05:25:47;-5.80;99.90
18207;DHT22;9229;52.354;20.886;2023-02-28T05:30:49;-5.70;99.90
18207;DHT22;9229;52.354;20.886;2023-02-28T05:35:52;-5.80;99.90
18207;DHT22;9229;52.354;20.886;2023-02-28T05:40:55;-5.70;99.90
18207;DHT22;9229;52.354;20.886;2023-02-28T05:46:03;-5.70;99.90
18207;DHT22;9229;52.354;20.886;2023-02-28T05:51:07;-5.70;99.90
18207;DHT22;9229;52.354;20.886;2023-02-28T05:56:11;-5.70;99.90
18207;DHT22;9229;52.354;20.886;2023-02-28T06:01:23;-5.60;99.90
18207;DHT22;9229;52.354;20.886;2023-02-28T06:06:25;-5.60;99.90
18207;DHT22;9229;52.354;20.886;2023-02-28T06:11:28;-5.50;99.90
18207;DHT22;9229;52.354;20.886;2023-02-28T06:16:33;-5.40;99.90
18207;DHT22;9229;52.354;20.886;2023-02-28T06:21:35;-5.30;99.90
18207;DHT22;9229;52.354;20.886;2023-02-28T06:26:39;-5.20;99.90
18207;DHT22;9229;52.354;20.886;2023-02-28T06:31:43;-5.10;99.90
18207;DHT22;9229;52.354;20.886;2023-02-28T06:36:45;-5.00;99.90
18207;DHT22;9229;52.354;20.886;2023-02-28T06:41:49;-4.90;99.90
18207;DHT22;9229;52.354;20.886;2023-02-28T06:46:54;-4.80;99.90
18207;DHT22;9229;52.354;20.886;2023-02-28T06:51:56;-4.70;99.90
18207;DHT22;9229;52.354;20.886;2023-02-28T06:56:59;-4.50;99.90
18207;DHT22;9229;52.354;20.886;2023-02-28T07:02:01;-4.30;99.90
18207;DHT22;9229;52.354;20.886;2023-02-28T07:07:03;-4.10;99.90
18207;DHT22;9229;52.354;20.886;2023-02-28T07:12:07;-3.80;99.90
18207;DHT22;9229;52.354;20.886;2023-02-28T07:17:12;-3.60;99.90
18207;DHT22;9229;52.354;20.886;2023-02-28T07:22:14;-3.30;99.90
18207;DHT22;9229;52.354;20.886;2023-02-28T07:27:18;-3.00;99.90
18207;DHT22;9229;52.354;20.886;2023-02-28T07:32:26;-2.70;99.90
18207;DHT22;9229;52.354;20.886;2023-02-28T07:37:29;-2.50;99.90
18207;DHT22;9229;52.354;20.886;2023-02-28T07:42:34;-2.20;99.90
18207;DHT22;9229;52.354;20.886;2023-02-28T07:47:45;-2.00;99.90
18207;DHT22;9229;52.354;20.886;2023-02-28T07:52:47;-1.80;99.90
18207;DHT22;9229;52.354;20.886;2023-02-28T07:57:51;-1.50;99.90
18207;DHT22;9229;52.354;20.886;2023-02-28T08:02:53;-1.40;99.90
18207;DHT22;9229;52.354;20.886;2023-02-28T08:07:55;-1.20;99.90
18207;DHT22;9229;52.354;20.886;2023-02-28T08:13:13;-1.00;99.90
18207;DHT22;9229;52.354;20.886;2023-02-28T08:18:16;-0.70;99.90
18207;DHT22;9229;52.354;20.886;2023-02-28T08:23:18;-0.30;99.90
18207;DHT22;9229;52.354;20.886;2023-02-28T08:28:21;0.30;99.90
18207;DHT22;9229;52.354;20.886;2023-02-28T08:33:26;0.80;99.90
18207;DHT22;9229;52.354;20.886;2023-02-28T08:38:34;1.60;99.90
18207;DHT22;9229;52.354;20.886;2023-02-28T08:43:38;2.90;99.90
18207;DHT22;9229;52.354;20.886;2023-02-28T08:48:42;4.00;99.50
18207;DHT22;9229;52.354;20.886;2023-02-28T08:53:45;5.00;96.00
18207;DHT22;9229;52.354;20.886;2023-02-28T08:58:49;5.90;90.60
18207;DHT22;9229;52.354;20.886;2023-02-28T09:03:57;6.90;89.50
18207;DHT22;9229;52.354;20.886;2023-02-28T09:09:22;7.30;78.60
18207;DHT22;9229;52.354;20.886;2023-02-28T09:14:25;7.40;73.50
18207;DHT22;9229;52.354;20.886;2023-02-28T09:19:28;7.70;70.60
18207;DHT22;9229;52.354;20.886;2023-02-28T09:24:30;7.90;68.80
18207;DHT22;9229;52.354;20.886;2023-02-28T09:29:34;7.90;65.60
18207;DHT22;9229;52.354;20.886;2023-02-28T09:34:37;7.80;66.90
18207;DHT22;9229;52.354;20.886;2023-02-28T09:39:41;8.00;65.20
18207;DHT22;9229;52.354;20.886;2023-02-28T09:44:47;8.30;66.80
18207;DHT22;9229;52.354;20.886;2023-02-28T09:49:50;8.20;63.70
18207;DHT22;9229;52.354;20.886;2023-02-28T09:54:52;7.80;62.20
18207;DHT22;9229;52.354;20.886;2023-02-28T10:00:05;7.50;63.50
18207;DHT22;9229;52.354;20.886;2023-02-28T10:05:16;7.50;64.10
18207;DHT22;9229;52.354;20.886;2023-02-28T10:10:22;7.90;62.90
18207;DHT22;9229;52.354;20.886;2023-02-28T10:15:30;8.00;62.90
18207;DHT22;9229;52.354;20.886;2023-02-28T10:20:35;8.60;61.30
18207;DHT22;9229;52.354;20.886;2023-02-28T10:25:39;8.70;60.10
18207;DHT22;9229;52.354;20.886;2023-02-28T10:30:46;9.20;59.70
18207;DHT22;9229;52.354;20.886;2023-02-28T10:35:48;9.30;58.20
18207;DHT22;9229;52.354;20.886;2023-02-28T10:40:51;9.00;57.30
18207;DHT22;9229;52.354;20.886;2023-02-28T10:46:13;9.00;58.70
18207;DHT22;9229;52.354;20.886;2023-02-28T10:51:34;9.10;59.50
18207;DHT22;9229;52.354;20.886;2023-02-28T10:56:37;9.50;59.60
18207;DHT22;9229;52.354;20.886;2023-02-28T11:01:43;9.90;57.20
18207;DHT22;9229;52.354;20.886;2023-02-28T11:06:47;9.50;55.20
18207;DHT22;9229;52.354;20.886;2023-02-28T11:11:49;8.40;55.60
18207;DHT22;9229;52.354;20.886;2023-02-28T11:17:13;8.60;58.10
18207;DHT22;9229;52.354;20.886;2023-02-28T11:22:20;8.00;56.70
18207;DHT22;9229;52.354;20.886;2023-02-28T11:27:46;7.90;57.80
18207;DHT22;9229;52.354;20.886;2023-02-28T11:32:51;7.80;58.70
18207;DHT22;9229;52.354;20.886;2023-02-28T11:37:53;8.00;58.90
18207;DHT22;9229;52.354;20.886;2023-02-28T11:43:02;8.10;59.10
18207;DHT22;9229;52.354;20.886;2023-02-28T11:48:16;8.00;58.70
18207;DHT22;9229;52.354;20.886;2023-02-28T11:53:26;7.80;60.10
18207;DHT22;9229;52.354;20.886;2023-02-28T11:58:38;7.90;61.80
18207;DHT22;9229;52.354;20.886;2023-02-28T12:03:55;8.00;61.00
18207;DHT22;9229;52.354;20.886;2023-02-28T12:09:11;7.90;60.00
18207;DHT22;9229;52.354;20.886;2023-02-28T12:14:44;7.90;62.00
18207;DHT22;9229;52.354;20.886;2023-02-28T12:19:57;8.10;60.90
18207;DHT22;9229;52.354;20.886;2023-02-28T12:25:24;7.80;60.20
18207;DHT22;9229;52.354;20.886;2023-02-28T12:30:33;8.00;59.80
18207;DHT22;9229;52.354;20.886;2023-02-28T12:35:45;7.90;61.60
18207;DHT22;9229;52.354;20.886;2023-02-28T12:40:54;7.80;60.50
18207;DHT22;9229;52.354;20.886;2023-02-28T12:46:00;7.70;59.80
18207;DHT22;9229;52.354;20.886;2023-02-28T12:51:07;7.80;61.70
18207;DHT22;9229;52.354;20.886;2023-02-28T12:56:13;7.90;61.60
18207;DHT22;9229;52.354;20.886;2023-02-28T13:01:36;7.90;59.20
18207;DHT22;9229;52.354;20.886;2023-02-28T13:07:04;7.80;60.10
18207;DHT22;9229;52.354;20.886;2023-02-28T13:12:13;7.90;59.30
18207;DHT22;9229;52.354;20.886;2023-02-28T13:17:19;8.00;59.60
18207;DHT22;9229;52.354;20.886;2023-02-28T13:22:39;8.20;60.30
18207;DHT22;9229;52.354;20.886;2023-02-28T13:27:41;8.50;58.40
18207;DHT22;9229;52.354;20.886;2023-02-28T13:32:44;8.40;57.90
18207;DHT22;9229;52.354;20.886;2023-02-28T13:37:48;8.70;58.60
18207;DHT22;9229;52.354;20.886;2023-02-28T13:42:52;9.10;57.80
18207;DHT22;9229;52.354;20.886;2023-02-28T13:47:58;8.90;55.70
18207;DHT22;9229;52.354;20.886;2023-02-28T13:53:36;8.00;56.60
18207;DHT22;9229;52.354;20.886;2023-02-28T13:58:47;7.20;58.40
18207;DHT22;9229;52.354;20.886;2023-02-28T14:09:31;6.00;60.40
18207;DHT22;9229;52.354;20.886;2023-02-28T14:14:54;5.60;60.30
18207;DHT22;9229;52.354;20.886;2023-02-28T14:19:58;5.50;63.30
18207;DHT22;9229;52.354;20.886;2023-02-28T14:25:10;5.20;62.00
18207;DHT22;9229;52.354;20.886;2023-02-28T14:30:43;5.10;63.20
18207;DHT22;9229;52.354;20.886;2023-02-28T14:41:21;4.80;62.90
18207;DHT22;9229;52.354;20.886;2023-02-28T14:46:35;4.80;64.00
18207;DHT22;9229;52.354;20.886;2023-02-28T14:51:39;4.60;64.70
18207;DHT22;9229;52.354;20.886;2023-02-28T14:56:42;4.50;63.80
18207;DHT22;9229;52.354;20.886;2023-02-28T15:01:44;4.40;63.50
18207;DHT22;9229;52.354;20.886;2023-02-28T15:06:46;4.20;64.90
18207;DHT22;9229;52.354;20.886;2023-02-28T15:12:13;4.10;65.10
18207;DHT22;9229;52.354;20.886;2023-02-28T15:17:22;4.00;65.30
18207;DHT22;9229;52.354;20.886;2023-02-28T15:22:29;3.80;65.60
18207;DHT22;9229;52.354;20.886;2023-02-28T15:27:44;3.70;68.20
18207;DHT22;9229;52.354;20.886;2023-02-28T15:33:03;3.70;67.50
18207;DHT22;9229;52.354;20.886;2023-02-28T15:38:16;3.50;66.40
18207;DHT22;9229;52.354;20.886;2023-02-28T15:43:24;3.20;66.30
18207;DHT22;9229;52.354;20.886;2023-02-28T15:48:29;3.10;67.00
18207;DHT22;9229;52.354;20.886;2023-02-28T15:53:37;2.90;67.50
18207;DHT22;9229;52.354;20.886;2023-02-28T15:58:43;2.80;68.30
18207;DHT22;9229;52.354;20.886;2023-02-28T16:03:46;2.60;69.30
18207;DHT22;9229;52.354;20.886;2023-02-28T16:08:50;2.40;70.50
18207;DHT22;9229;52.354;20.886;2023-02-28T16:13:55;2.20;71.50
18207;DHT22;9229;52.354;20.886;2023-02-28T16:18:57;2.00;72.20
18207;DHT22;9229;52.354;20.886;2023-02-28T16:23:59;1.80;73.30
18207;DHT22;9229;52.354;20.886;2023-02-28T16:29:04;1.60;74.10
18207;DHT22;9229;52.354;20.886;2023-02-28T16:34:06;1.30;75.00
18207;DHT22;9229;52.354;20.886;2023-02-28T16:39:11;1.10;76.00
18207;DHT22;9229;52.354;20.886;2023-02-28T16:44:23;0.90;78.00
18207;DHT22;9229;52.354;20.886;2023-02-28T16:49:28;0.80;78.30
18207;DHT22;9229;52.354;20.886;2023-02-28T16:54:30;0.40;81.20
18207;DHT22;9229;52.354;20.886;2023-02-28T16:59:35;0.40;81.80
18207;DHT22;9229;52.354;20.886;2023-02-28T17:04:37;0.20;82.90
18207;DHT22;9229;52.354;20.886;2023-02-28T17:09:40;0.00;84.30
18207;DHT22;9229;52.354;20.886;2023-02-28T17:14:43;-0.20;85.50
18207;DHT22;9229;52.354;20.886;2023-02-28T17:19:45;-0.30;87.00
18207;DHT22;9229;52.354;20.886;2023-02-28T17:24:47;-0.50;87.90
18207;DHT22;9229;52.354;20.886;2023-02-28T17:29:52;-0.60;88.80
18207;DHT22;9229;52.354;20.886;2023-02-28T17:34:54;-0.70;90.20
18207;DHT22;9229;52.354;20.886;2023-02-28T17:39:56;-0.80;90.80
18207;DHT22;9229;52.354;20.886;2023-02-28T17:45:06;-0.90;91.60
18207;DHT22;9229;52.354;20.886;2023-02-28T17:50:13;-0.90;92.50
18207;DHT22;9229;52.354;20.886;2023-02-28T17:55:16;-1.00;93.20
18207;DHT22;9229;52.354;20.886;2023-02-28T18:00:22;-1.00;94.10
18207;DHT22;9229;52.354;20.886;2023-02-28T18:05:25;-1.10;94.70
18207;DHT22;9229;52.354;20.886;2023-02-28T18:10:27;-1.10;95.50
18207;DHT22;9229;52.354;20.886;2023-02-28T18:15:35;-1.20;96.20
18207;DHT22;9229;52.354;20.886;2023-02-28T18:20:38;-1.30;96.90
18207;DHT22;9229;52.354;20.886;2023-02-28T18:25:40;-1.30;97.60
18207;DHT22;9229;52.354;20.886;2023-02-28T18:30:43;-1.50;97.80
18207;DHT22;9229;52.354;20.886;2023-02-28T18:35:54;-1.60;98.30
18207;DHT22;9229;52.354;20.886;2023-02-28T18:40:58;-1.70;99.60
18207;DHT22;9229;52.354;20.886;2023-02-28T18:46:05;-1.80;99.90
18207;DHT22;9229;52.354;20.886;2023-02-28T18:51:07;-1.80;99.90
18207;DHT22;9229;52.354;20.886;2023-02-28T18:56:14;-1.90;99.90
18207;DHT22;9229;52.354;20.886;2023-02-28T19:01:20;-2.00;99.90
18207;DHT22;9229;52.354;20.886;2023-02-28T19:06:23;-2.10;99.90
18207;DHT22;9229;52.354;20.886;2023-02-28T19:11:29;-2.20;99.90
18207;DHT22;9229;52.354;20.886;2023-02-28T19:16:35;-2.20;99.90
18207;DHT22;9229;52.354;20.886;2023-02-28T19:21:37;-2.30;99.90
18207;DHT22;9229;52.354;20.886;2023-02-28T19:26:40;-2.40;99.90
18207;DHT22;9229;52.354;20.886;2023-02-28T19:31:46;-2.50;99.90
18207;DHT22;9229;52.354;20.886;2023-02-28T19:36:48;-2.50;99.90
18207;DHT22;9229;52.354;20.886;2023-02-28T19:41:50;-2.60;99.90
18207;DHT22;9229;52.354;20.886;2023-02-28T19:46:55;-2.70;99.90
18207;DHT22;9229;52.354;20.886;2023-02-28T19:51:58;-2.80;99.90
18207;DHT22;9229;52.354;20.886;2023-02-28T19:57:00;-2.80;99.90
18207;DHT22;9229;52.354;20.886;2023-02-28T20:02:12;-2.90;99.90
18207;DHT22;9229;52.354;20.886;2023-02-28T20:07:15;-2.90;99.90
18207;DHT22;9229;52.354;20.886;2023-02-28T20:12:19;-3.00;99.90
18207;DHT22;9229;52.354;20.886;2023-02-28T20:17:29;-3.10;99.90
18207;DHT22;9229;52.354;20.886;2023-02-28T20:22:33;-3.10;99.90
18207;DHT22;9229;52.354;20.886;2023-02-28T20:27:38;-3.20;99.90
18207;DHT22;9229;52.354;20.886;2023-02-28T20:32:48;-3.20;99.90
18207;DHT22;9229;52.354;20.886;2023-02-28T20:37:50;-3.20;99.90
18207;DHT22;9229;52.354;20.886;2023-02-28T20:42:54;-3.20;99.90
18207;DHT22;9229;52.354;20.886;2023-02-28T20:48:03;-3.30;99.90
18207;DHT22;9229;52.354;20.886;2023-02-28T20:53:05;-3.40;99.90
18207;DHT22;9229;52.354;20.886;2023-02-28T20:58:11;-3.50;99.90
18207;DHT22;9229;52.354;20.886;2023-02-28T21:03:29;-3.50;99.90
18207;DHT22;9229;52.354;20.886;2023-02-28T21:08:33;-3.60;99.90
18207;DHT22;9229;52.354;20.886;2023-02-28T21:13:36;-3.60;99.90
18207;DHT22;9229;52.354;20.886;2023-02-28T21:18:40;-3.60;99.90
18207;DHT22;9229;52.354;20.886;2023-02-28T21:23:43;-3.70;99.90
18207;DHT22;9229;52.354;20.886;2023-02-28T21:28:49;-3.70;99.90
18207;DHT22;9229;52.354;20.886;2023-02-28T21:33:56;-3.80;99.90
18207;DHT22;9229;52.354;20.886;2023-02-28T21:39:04;-3.90;99.90
18207;DHT22;9229;52.354;20.886;2023-02-28T21:44:08;-3.90;99.90
18207;DHT22;9229;52.354;20.886;2023-02-28T21:49:12;-4.00;99.90
18207;DHT22;9229;52.354;20.886;2023-02-28T21:54:15;-4.00;99.90
18207;DHT22;9229;52.354;20.886;2023-02-28T21:59:18;-4.00;99.90
18207;DHT22;9229;52.354;20.886;2023-02-28T22:04:23;-4.00;99.90
18207;DHT22;9229;52.354;20.886;2023-02-28T22:09:26;-4.00;99.90
18207;DHT22;9229;52.354;20.886;2023-02-28T22:14:29;-4.10;99.90
18207;DHT22;9229;52.354;20.886;2023-02-28T22:19:48;-4.10;99.90
18207;DHT22;9229;52.354;20.886;2023-02-28T22:24:50;-4.00;99.90
18207;DHT22;9229;52.354;20.886;2023-02-28T22:29:53;-4.00;99.90
18207;DHT22;9229;52.354;20.886;2023-02-28T22:35:01;-4.00;99.90
18207;DHT22;9229;52.354;20.886;2023-02-28T22:40:05;-4.00;99.90
18207;DHT22;9229;52.354;20.886;2023-02-28T22:45:09;-4.00;99.90
18207;DHT22;9229;52.354;20.886;2023-02-28T22:50:13;-4.00;99.90
18207;DHT22;9229;52.354;20.886;2023-02-28T22:55:15;-4.00;99.90
18207;DHT22;9229;52.354;20.886;2023-02-28T23:00:18;-4.10;99.90
18207;DHT22;9229;52.354;20.886;2023-02-28T23:05:22;-4.00;99.90
18207;DHT22;9229;52.354;20.886;2023-02-28T23:10:24;-4.00;99.90
18207;DHT22;9229;52.354;20.886;2023-02-28T23:15:26;-4.00;99.90
18207;DHT22;9229;52.354;20.886;2023-02-28T23:20:29;-4.00;99.90
18207;DHT22;9229;52.354;20.886;2023-02-28T23:25:32;-3.90;99.90
18207;DHT22;9229;52.354;20.886;2023-02-28T23:30:34;-3.90;99.90
18207;DHT22;9229;52.354;20.886;2023-02-28T23:35:39;-3.90;99.90
18207;DHT22;9229;52.354;20.886;2023-02-28T23:40:42;-3.90;99.90
18207;DHT22;9229;52.354;20.886;2023-02-28T23:45:44;-3.90;99.90
18207;DHT22;9229;52.354;20.886;2023-02-28T23:50:59;-3.90;99.90
18207;DHT22;9229;52.354;20.886;2023-02-28T23:56:02;-3.90;99.90
